Time;durP1;ratioP1;P1;durP2;ratioP2;P2;SDS_P1;SDS_P2;PMS_P1;PMS_P2;Temp;Humidity;BMP_temperature;BMP_pressure;BME280_temperature;BME280_humidity;BME280_pressure;Samples;Min_cycle;Max_cycle;Signal;HPM_P1;HPM_P2
2021/06/19 00:00:55;;;;;;;3.25;2.72;;;;;;;18.05;72.66;100517.78;4881438;29;20070;-85
2021/06/19 00:03:21;;;;;;;4.50;2.72;;;;;;;18.06;72.76;100516.78;4880097;29;20572;-85
2021/06/19 00:05:46;;;;;;;2.90;2.42;;;;;;;18.09;72.52;100519.16;4881257;29;20440;-85
2021/06/19 00:08:12;;;;;;;5.03;3.03;;;;;;;18.09;73.27;100521.81;4881068;29;20104;-85
2021/06/19 00:10:39;;;;;;;4.35;3.10;;;;;;;18.10;72.59;100520.81;4880879;29;20036;-85
2021/06/19 00:13:05;;;;;;;3.90;2.70;;;;;;;18.07;72.49;100521.13;4881034;29;20101;-86
2021/06/19 00:15:30;;;;;;;3.92;3.08;;;;;;;18.07;72.70;100523.78;4881103;29;20032;-85
2021/06/19 00:17:55;;;;;;;3.55;3.25;;;;;;;17.99;72.47;100521.00;4880990;29;20033;-85
2021/06/19 00:20:24;;;;;;;6.53;3.40;;;;;;;18.03;72.78;100527.72;4881123;29;20072;-85
2021/06/19 00:22:50;;;;;;;5.20;3.15;;;;;;;18.02;73.09;100526.88;4880866;29;20032;-86
2021/06/19 00:25:18;;;;;;;4.30;3.72;;;;;;;18.00;73.04;100518.22;4880803;29;20037;-85
2021/06/19 00:27:44;;;;;;;5.38;4.22;;;;;;;17.92;72.61;100517.31;4880871;29;20455;-85
2021/06/19 00:30:11;;;;;;;7.95;4.00;;;;;;;17.99;71.64;100528.97;4880709;29;20048;-85
2021/06/19 00:32:37;;;;;;;7.85;4.20;;;;;;;17.94;71.70;100521.47;4880676;29;20383;-85
2021/06/19 00:35:04;;;;;;;5.35;4.45;;;;;;;17.96;72.16;100514.19;4880742;29;20104;-85
2021/06/19 00:37:31;;;;;;;7.40;5.35;;;;;;;17.99;72.35;100518.34;4880566;29;20036;-85
2021/06/19 00:39:56;;;;;;;6.95;5.07;;;;;;;18.00;72.61;100514.72;4880766;29;20068;-83
2021/06/19 00:42:22;;;;;;;6.57;4.90;;;;;;;17.96;72.46;100510.69;4880653;29;20457;-85
2021/06/19 00:44:48;;;;;;;6.15;4.55;;;;;;;18.02;71.94;100515.41;4880565;29;20441;-85
2021/06/19 00:47:14;;;;;;;5.22;4.70;;;;;;;17.96;72.18;100510.69;4880467;29;20504;-85
2021/06/19 00:49:40;;;;;;;6.57;4.60;;;;;;;17.95;72.09;100509.88;4880224;29;20043;-85
2021/06/19 00:52:05;;;;;;;6.72;5.13;;;;;;;18.00;71.98;100517.38;4880189;29;20429;-85
2021/06/19 00:54:31;;;;;;;5.93;4.60;;;;;;;17.99;71.24;100513.03;4880379;29;20029;-85
2021/06/19 00:56:56;;;;;;;6.15;5.55;;;;;;;17.96;71.63;100516.00;4880444;29;20033;-85
2021/06/19 00:59:22;;;;;;;8.82;5.30;;;;;;;17.95;71.82;100515.19;4880236;29;20033;-85
2021/06/19 01:01:48;;;;;;;10.13;5.85;;;;;;;17.89;71.23;100505.16;4880082;29;20420;-85
2021/06/19 01:04:14;;;;;;;6.45;5.45;;;;;;;17.84;71.65;100496.78;4880010;29;20080;-85
2021/06/19 01:06:40;;;;;;;5.65;4.93;;;;;;;17.90;71.98;100496.19;4880152;29;20037;-85
2021/06/19 01:09:08;;;;;;;6.20;5.03;;;;;;;17.93;71.21;100495.91;4880190;29;20025;-85
2021/06/19 01:11:34;;;;;;;6.18;4.40;;;;;;;17.92;71.10;100494.22;4880021;29;20503;-85
2021/06/19 01:14:00;;;;;;;5.05;4.55;;;;;;;17.87;70.24;100496.50;4879911;29;20036;-86
2021/06/19 01:16:26;;;;;;;6.88;4.35;;;;;;;17.97;69.90;100501.72;4880114;29;20033;-85
2021/06/19 01:18:52;;;;;;;4.53;4.10;;;;;;;17.89;69.50;100497.19;4879940;29;20063;-85
2021/06/19 01:21:20;;;;;;;6.43;4.05;;;;;;;17.91;70.56;100505.00;4879608;29;20476;-85
2021/06/19 01:23:46;;;;;;;5.63;4.30;;;;;;;17.76;69.20;100500.16;4879808;29;20025;-85
2021/06/19 01:26:20;;;;;;;8.60;4.85;;;;;;;17.83;68.95;100498.63;4879802;29;20481;-85
2021/06/19 01:28:48;;;;;;;7.95;5.63;;;;;;;17.85;70.03;100493.13;4879659;29;20088;-85
2021/06/19 01:31:14;;;;;;;8.07;5.38;;;;;;;17.88;70.65;100500.81;4879652;29;20157;-85
2021/06/19 01:33:41;;;;;;;7.20;5.30;;;;;;;17.85;68.81;100498.44;4879423;29;20116;-85
2021/06/19 01:36:07;;;;;;;8.32;5.05;;;;;;;17.78;69.67;100495.53;4879674;29;20025;-86
2021/06/19 01:38:41;;;;;;;8.63;4.82;;;;;;;17.79;69.09;100499.88;4879509;29;20036;-85
2021/06/19 01:41:15;;;;;;;5.68;4.57;;;;;;;17.82;69.03;100504.03;4879458;29;20025;-85
2021/06/19 01:43:43;;;;;;;5.10;4.68;;;;;;;17.81;69.71;100502.34;4879343;29;20029;-85
2021/06/19 01:46:09;;;;;;;6.32;4.55;;;;;;;17.82;69.03;100509.34;4879237;29;20124;-85
2021/06/19 01:48:35;;;;;;;8.57;5.72;;;;;;;17.84;69.61;100508.25;4879321;29;20029;-85
2021/06/19 01:51:00;;;;;;;4.55;4.15;;;;;;;17.82;69.28;100506.69;4879279;29;20025;-85
2021/06/19 01:53:26;;;;;;;8.50;4.72;;;;;;;17.79;69.70;100501.66;4879383;29;20396;-85
2021/06/19 01:55:51;;;;;;;7.28;4.80;;;;;;;17.82;69.65;100502.22;4879199;29;20032;-85
2021/06/19 01:58:16;;;;;;;9.63;4.68;;;;;;;17.85;69.08;100506.41;4879270;29;20476;-85
2021/06/19 02:00:42;;;;;;;5.95;4.97;;;;;;;17.77;68.53;100512.47;4879107;29;20476;-85
2021/06/19 02:03:08;;;;;;;5.82;4.88;;;;;;;17.79;68.57;100521.13;4879288;29;20031;-85
2021/06/19 02:05:33;;;;;;;4.95;4.22;;;;;;;17.77;69.00;100528.41;4879110;29;20077;-85
2021/06/19 02:08:02;;;;;;;5.15;4.53;;;;;;;17.80;68.88;100538.72;4879140;29;20491;-85
2021/06/19 02:10:33;;;;;;;5.57;4.60;;;;;;;17.78;68.48;100553.97;4879166;29;20088;-85
2021/06/19 02:13:00;;;;;;;3.75;3.33;;;;;;;17.71;67.24;100555.53;4879088;29;20097;-85
2021/06/19 02:15:26;;;;;;;4.63;3.55;;;;;;;17.79;66.95;100557.44;4878332;29;20037;-85
2021/06/19 02:17:51;;;;;;;3.55;3.05;;;;;;;17.75;67.21;100562.25;4878787;29;20444;-85
2021/06/19 02:20:19;;;;;;;6.20;3.38;;;;;;;17.73;67.76;100564.22;4878808;29;20088;-85
2021/06/19 02:22:44;;;;;;;4.18;3.13;;;;;;;17.70;67.53;100555.69;4878736;29;20392;-85
2021/06/19 02:25:13;;;;;;;4.68;3.40;;;;;;;17.69;69.22;100554.00;4878774;29;20033;-85
2021/06/19 02:27:48;;;;;;;5.05;3.70;;;;;;;17.73;68.39;100556.25;4878741;29;20033;-85
2021/06/19 02:30:14;;;;;;;4.15;3.20;;;;;;;17.66;67.54;100549.00;4878745;29;20096;-85
2021/06/19 02:32:40;;;;;;;3.50;2.55;;;;;;;17.65;67.77;100545.50;4878720;29;20033;-85
2021/06/19 02:35:06;;;;;;;3.20;2.90;;;;;;;17.71;67.03;100538.75;4879032;29;20053;-85
2021/06/19 02:37:31;;;;;;;3.22;2.92;;;;;;;17.71;68.63;100528.13;4878647;29;20025;-85
2021/06/19 02:39:57;;;;;;;3.40;3.10;;;;;;;17.57;69.71;100524.16;4878480;29;20473;-85
2021/06/19 02:42:22;;;;;;;5.72;3.20;;;;;;;17.48;70.74;100509.94;4878382;29;20028;-85
2021/06/19 02:44:47;;;;;;;3.80;3.22;;;;;;;17.43;70.89;100497.09;4878437;29;20049;-85
2021/06/19 02:47:13;;;;;;;3.13;2.83;;;;;;;17.43;71.24;100478.53;4878404;29;20464;-85
2021/06/19 02:49:38;;;;;;;3.67;2.60;;;;;;;17.41;71.34;100477.84;4878464;29;20036;-85
2021/06/19 02:52:04;;;;;;;4.80;3.17;;;;;;;17.43;70.94;100488.31;4878276;29;20033;-85
2021/06/19 02:54:29;;;;;;;3.13;2.83;;;;;;;17.51;70.34;100474.31;4878416;29;20037;-85
2021/06/19 02:56:54;;;;;;;5.95;2.50;;;;;;;17.45;70.09;100473.91;4878254;29;20031;-85
2021/06/19 02:59:20;;;;;;;6.22;3.10;;;;;;;17.47;71.06;100472.94;4878327;29;20029;-85
2021/06/19 03:01:45;;;;;;;4.10;3.67;;;;;;;17.49;71.05;100477.09;4878145;29;20491;-85
2021/06/19 03:04:13;;;;;;;3.28;2.65;;;;;;;17.47;70.59;100479.06;4878173;29;20060;-85
2021/06/19 03:06:38;;;;;;;4.22;3.15;;;;;;;17.48;71.32;100469.31;4878212;29;20111;-85
2021/06/19 03:09:04;;;;;;;3.60;3.08;;;;;;;17.43;70.83;100475.88;4878188;29;20112;-85
2021/06/19 03:11:29;;;;;;;3.38;2.85;;;;;;;17.41;70.23;100484.97;4878082;29;20025;-85
2021/06/19 03:13:55;;;;;;;4.78;2.88;;;;;;;17.44;70.14;100482.88;4878003;29;20061;-85
2021/06/19 03:16:20;;;;;;;4.95;2.65;;;;;;;17.50;69.08;100492.06;4878126;29;20048;-85
2021/06/19 03:18:45;;;;;;;3.70;2.42;;;;;;;17.48;68.88;100485.22;4878047;29;20039;-85
2021/06/19 03:21:11;;;;;;;3.85;2.90;;;;;;;17.54;67.98;100479.34;4877872;29;20388;-85
2021/06/19 03:23:36;;;;;;;3.60;2.92;;;;;;;17.53;68.10;100482.94;4878140;29;20040;-85
2021/06/19 03:26:01;;;;;;;7.53;3.05;;;;;;;17.56;67.98;100488.81;4878364;29;20025;-86
2021/06/19 03:28:27;;;;;;;6.55;3.42;;;;;;;17.52;68.21;100491.91;4881652;29;20065;-86
2021/06/19 03:30:52;;;;;;;4.90;2.95;;;;;;;17.55;67.44;100486.28;4881775;29;20384;-85
2021/06/19 03:33:18;;;;;;;3.95;2.20;;;;;;;17.49;67.86;100497.50;4881756;29;20029;-86
2021/06/19 03:35:44;;;;;;;8.10;2.50;;;;;;;17.44;68.27;100509.41;4881666;29;20060;-86
2021/06/19 03:38:09;;;;;;;5.32;2.40;;;;;;;17.48;68.92;100507.31;4881768;29;20507;-86
2021/06/19 03:40:37;;;;;;;3.58;2.58;;;;;;;17.49;69.48;100519.56;4881749;29;20037;-86
2021/06/19 03:43:03;;;;;;;4.40;2.40;;;;;;;17.48;69.16;100522.41;4881712;29;20401;-86
2021/06/19 03:45:34;;;;;;;3.30;2.15;;;;;;;17.47;68.99;100523.38;4881599;29;20025;-86
2021/06/19 03:48:00;;;;;;;6.75;2.35;;;;;;;17.50;67.67;100525.75;4881616;29;20025;-86
2021/06/19 03:50:27;;;;;;;3.90;2.33;;;;;;;17.51;67.45;100530.88;4881212;29;20424;-86
2021/06/19 03:52:54;;;;;;;5.50;2.38;;;;;;;17.47;66.96;100534.81;4881366;29;20048;-85
2021/06/19 03:55:20;;;;;;;3.50;2.10;;;;;;;17.38;67.22;100538.34;4881374;29;20034;-86
2021/06/19 03:57:45;;;;;;;7.63;2.53;;;;;;;17.28;68.74;100537.53;4881214;29;20036;-85
2021/06/19 04:00:13;;;;;;;2.72;1.73;;;;;;;17.38;67.89;100552.47;4881351;29;20033;-85
2021/06/19 04:02:40;;;;;;;5.05;2.15;;;;;;;17.38;67.73;100555.13;4881178;29;20021;-85
2021/06/19 04:05:06;;;;;;;4.63;2.25;;;;;;;17.48;66.95;100554.25;4881300;29;20029;-85
2021/06/19 04:07:32;;;;;;;3.85;1.98;;;;;;;17.41;66.82;100554.81;4881236;29;20452;-85
2021/06/19 04:09:57;;;;;;;4.50;2.60;;;;;;;17.42;66.50;100561.81;4880956;29;20097;-85
2021/06/19 04:12:23;;;;;;;6.45;2.03;;;;;;;17.44;66.71;100561.66;4881027;29;20036;-84
2021/06/19 04:14:49;;;;;;;5.50;1.90;;;;;;;17.32;67.44;100566.31;4881237;29;20037;-85
2021/06/19 04:17:15;;;;;;;6.22;1.95;;;;;;;17.17;67.84;100571.22;4881091;29;20040;-85
2021/06/19 04:19:41;;;;;;;4.68;1.80;;;;;;;17.17;67.78;100578.34;4881077;29;20261;-85
2021/06/19 04:22:07;;;;;;;6.28;2.35;;;;;;;17.15;68.03;100569.69;4880945;29;20447;-85
2021/06/19 04:24:34;;;;;;;2.72;1.90;;;;;;;17.17;68.02;100567.75;4880882;29;20484;-85
2021/06/19 04:26:59;;;;;;;1.90;1.50;;;;;;;17.17;69.08;100562.44;4880828;29;20037;-85
2021/06/19 04:29:27;;;;;;;6.72;2.25;;;;;;;17.17;68.25;100565.09;4880844;29;20503;-85
2021/06/19 04:31:54;;;;;;;3.95;2.20;;;;;;;17.20;68.62;100567.44;4880751;29;20032;-85
2021/06/19 04:34:19;;;;;;;3.83;2.10;;;;;;;17.33;67.71;100573.28;4881081;29;20424;-85
2021/06/19 04:36:45;;;;;;;4.85;1.90;;;;;;;17.30;68.17;100570.94;4880313;29;20111;-85
2021/06/19 04:39:11;;;;;;;4.50;1.80;;;;;;;17.30;67.94;100580.69;4880491;29;20076;-85
2021/06/19 04:41:49;;;;;;;4.57;2.15;;;;;;;17.21;68.47;100574.44;4880607;29;20032;-85
2021/06/19 04:46:42;;;;;;;3.22;1.73;;;;;;;17.31;68.16;100579.72;4880508;29;20029;-85
2021/06/19 04:49:08;;;;;;;4.13;2.00;;;;;;;17.31;68.28;100583.19;4880547;29;20032;-85
2021/06/19 04:51:33;;;;;;;3.10;1.50;;;;;;;17.30;68.39;100578.03;4880292;29;20552;-85
2021/06/19 04:53:59;;;;;;;4.65;3.40;;;;;;;17.27;68.69;100568.53;4880192;29;20433;-85
2021/06/19 04:56:24;;;;;;;4.85;2.70;;;;;;;17.30;69.04;100568.28;4880209;29;20065;-85
2021/06/19 04:58:50;;;;;;;3.35;2.30;;;;;;;17.25;69.24;100566.03;4880381;29;20033;-85
2021/06/19 05:01:15;;;;;;;5.25;2.03;;;;;;;17.30;68.83;100565.63;4880132;29;20508;-85
2021/06/19 05:03:40;;;;;;;4.93;2.38;;;;;;;17.34;68.91;100568.81;4880316;29;20092;-85
2021/06/19 05:06:06;;;;;;;2.90;2.05;;;;;;;17.37;68.45;100564.03;4880117;29;20280;-85
2021/06/19 05:08:31;;;;;;;3.45;1.77;;;;;;;17.41;68.20;100556.63;4879977;29;20052;-85
2021/06/19 05:10:57;;;;;;;2.90;1.75;;;;;;;17.40;67.88;100552.31;4879894;29;20085;-85
2021/06/19 05:13:24;;;;;;;5.25;2.10;;;;;;;17.38;69.14;100547.16;4880044;29;20025;-85
2021/06/19 05:15:50;;;;;;;4.05;1.65;;;;;;;17.47;68.29;100557.88;4879881;29;20029;-85
2021/06/19 05:18:15;;;;;;;3.67;1.73;;;;;;;17.43;68.65;100552.84;4879921;29;20404;-85
2021/06/19 05:20:40;;;;;;;3.50;1.63;;;;;;;17.40;68.82;100555.81;4879878;29;20038;-85
2021/06/19 05:23:09;;;;;;;2.60;1.60;;;;;;;17.43;68.65;100558.16;4879768;29;20060;-85
2021/06/19 05:25:37;;;;;;;4.28;1.90;;;;;;;17.51;69.17;100548.63;4879812;29;20443;-85
2021/06/19 05:28:02;;;;;;;3.72;1.90;;;;;;;17.55;68.39;100550.00;4879770;29;20029;-85
2021/06/19 05:30:28;;;;;;;4.18;2.10;;;;;;;17.54;67.59;100548.34;4879615;29;20084;-85
2021/06/19 05:32:53;;;;;;;5.47;1.60;;;;;;;17.44;68.05;100553.69;4879932;29;20033;-85
2021/06/19 05:35:19;;;;;;;4.68;2.00;;;;;;;17.37;68.34;100553.44;4879643;29;20039;-85
2021/06/19 05:37:44;;;;;;;5.07;1.75;;;;;;;17.41;68.26;100549.50;4879589;29;20063;-85
2021/06/19 05:40:10;;;;;;;4.78;2.08;;;;;;;17.41;68.57;100541.53;4879804;29;20036;-85
2021/06/19 05:42:36;;;;;;;2.72;1.90;;;;;;;17.50;69.16;100536.34;4879494;29;20033;-85
2021/06/19 05:45:01;;;;;;;2.45;1.77;;;;;;;17.57;68.68;100543.56;4879312;29;20029;-85
2021/06/19 05:47:27;;;;;;;4.22;1.75;;;;;;;17.53;68.04;100544.00;4879288;29;20400;-85
2021/06/19 05:49:52;;;;;;;2.90;1.83;;;;;;;17.54;68.52;100548.34;4878405;29;20037;-85
2021/06/19 05:52:19;;;;;;;2.88;1.60;;;;;;;17.58;68.55;100552.38;4879575;29;20380;-85
2021/06/19 05:54:44;;;;;;;2.70;1.67;;;;;;;17.62;67.10;100551.13;4879399;29;20562;-85
2021/06/19 05:57:10;;;;;;;3.45;1.60;;;;;;;17.63;67.17;100558.06;4876816;29;20025;-85
2021/06/19 05:59:37;;;;;;;3.42;2.00;;;;;;;17.71;67.52;100560.00;4878015;29;20036;-85
2021/06/19 06:02:03;;;;;;;3.13;1.80;;;;;;;17.69;67.81;100559.31;4878957;29;20077;-85
2021/06/19 06:04:33;;;;;;;3.50;2.00;;;;;;;17.72;66.54;100551.06;4878713;29;20439;-85
2021/06/19 06:06:58;;;;;;;2.40;1.75;;;;;;;17.81;66.03;100558.13;4878830;29;20111;-85
2021/06/19 06:09:23;;;;;;;3.10;1.48;;;;;;;17.69;64.07;100544.22;4878780;29;20535;-83
2021/06/19 06:11:49;;;;;;;4.65;1.35;;;;;;;17.83;64.51;100534.91;4877990;29;20033;-83
2021/06/19 06:14:14;;;;;;;3.22;1.80;;;;;;;17.70;64.55;100543.25;4878938;29;20514;-83
2021/06/19 06:16:40;;;;;;;1.85;1.38;;;;;;;17.80;64.11;100554.66;4878411;29;20044;-85
2021/06/19 06:19:06;;;;;;;1.33;0.95;;;;;;;17.78;64.06;100556.63;4878665;29;20029;-85
2021/06/19 06:21:31;;;;;;;2.40;1.08;;;;;;;17.79;63.48;100555.66;4878613;29;20033;-85
2021/06/19 06:23:57;;;;;;;1.90;1.20;;;;;;;17.93;63.39;100566.78;4878311;29;20451;-85
2021/06/19 06:26:22;;;;;;;2.08;1.10;;;;;;;18.09;62.70;100560.81;4878202;29;20030;-84
2021/06/19 06:28:47;;;;;;;1.10;1.00;;;;;;;18.02;62.92;100557.91;4878480;29;20032;-85
2021/06/19 06:31:13;;;;;;;1.60;0.90;;;;;;;18.11;62.61;100556.19;4878658;29;20025;-85
2021/06/19 06:33:38;;;;;;;2.35;1.10;;;;;;;18.10;63.81;100554.53;4878174;29;20380;-85
2021/06/19 06:36:04;;;;;;;1.13;1.00;;;;;;;18.15;63.62;100544.28;4878444;29;20029;-85
2021/06/19 06:38:30;;;;;;;3.47;0.98;;;;;;;18.26;63.21;100548.53;4878327;29;20037;-85
2021/06/19 06:40:55;;;;;;;1.48;0.98;;;;;;;18.33;61.98;100550.44;4878270;29;20120;-85
2021/06/19 06:43:21;;;;;;;1.00;0.60;;;;;;;18.39;61.71;100538.38;4880582;29;20472;-85
2021/06/19 06:45:47;;;;;;;1.88;0.50;;;;;;;18.53;59.64;100529.84;4878420;29;20037;-85
2021/06/19 06:48:12;;;;;;;0.32;0.32;;;;;;;18.51;60.44;100531.00;4878122;29;20040;-85
2021/06/19 06:50:38;;;;;;;1.23;0.43;;;;;;;18.57;60.81;100527.75;4878316;29;20468;-85
2021/06/19 06:53:04;;;;;;;0.70;0.30;;;;;;;18.75;60.15;100541.00;4878297;29;20044;-85
2021/06/19 06:55:29;;;;;;;0.68;0.20;;;;;;;18.78;59.18;100536.22;4876853;29;20039;-85
2021/06/19 06:57:54;;;;;;;0.85;0.50;;;;;;;18.97;58.57;100537.88;4877939;29;20044;-85
2021/06/19 07:00:20;;;;;;;0.52;0.40;;;;;;;19.02;58.17;100543.56;4876695;29;20065;-85
2021/06/19 07:02:46;;;;;;;1.33;0.35;;;;;;;18.96;57.57;100549.53;4878049;29;20421;-85
2021/06/19 07:05:12;;;;;;;0.52;0.20;;;;;;;18.90;58.89;100550.16;4877540;29;20089;-85
2021/06/19 07:07:39;;;;;;;0.98;0.22;;;;;;;18.98;58.83;100552.03;4877755;29;20028;-85
2021/06/19 07:10:06;;;;;;;4.95;1.25;;;;;;;18.98;57.79;100544.88;4892868;29;20039;-85
2021/06/19 07:12:32;;;;;;;5.80;0.50;;;;;;;18.91;58.37;100533.19;4896746;29;20384;-85
2021/06/19 07:14:57;;;;;;;0.40;0.30;;;;;;;18.93;59.05;100533.03;4894334;29;20039;-85
2021/06/19 07:17:22;;;;;;;1.45;0.30;;;;;;;18.90;57.72;100535.97;4875198;29;20028;-85
2021/06/19 07:19:48;;;;;;;0.47;0.10;;;;;;;18.85;59.12;100539.13;4875812;29;20152;-85
2021/06/19 07:22:13;;;;;;;0.85;0.28;;;;;;;18.94;58.51;100540.03;4878937;29;20033;-85
2021/06/19 07:24:39;;;;;;;1.02;0.55;;;;;;;19.01;58.19;100533.06;4879785;29;20033;-85
2021/06/19 07:27:05;;;;;;;1.17;0.60;;;;;;;18.97;58.90;100537.03;4880369;29;20068;-85
2021/06/19 07:29:30;;;;;;;1.15;0.38;;;;;;;19.16;58.23;100533.34;4887947;29;20055;-85
2021/06/19 07:31:56;;;;;;;1.90;0.50;;;;;;;19.07;58.22;100519.16;4891511;29;20480;-85
2021/06/19 07:34:21;;;;;;;1.30;0.73;;;;;;;19.19;58.21;100503.75;4884422;29;20092;-85
2021/06/19 07:36:47;;;;;;;1.95;0.50;;;;;;;19.17;58.25;100489.75;4876498;29;20396;-85
2021/06/19 07:39:13;;;;;;;0.32;0.25;;;;;;;19.23;57.56;100489.13;4880697;29;20040;-85
2021/06/19 07:41:39;;;;;;;0.60;0.30;;;;;;;19.34;57.05;100496.84;4891429;29;20033;-85
2021/06/19 07:44:05;;;;;;;1.98;0.38;;;;;;;19.46;56.79;100499.22;4877603;29;20029;-85
2021/06/19 07:46:30;;;;;;;0.57;0.40;;;;;;;19.58;56.74;100500.59;4879444;29;20443;-85
2021/06/19 07:48:56;;;;;;;0.32;0.20;;;;;;;19.81;55.61;100499.06;4885776;29;20054;-85
2021/06/19 07:51:21;;;;;;;0.95;0.38;;;;;;;19.87;55.63;100505.56;4896544;29;20028;-85
2021/06/19 07:53:47;;;;;;;0.55;0.50;;;;;;;19.75;55.36;100505.03;4891275;29;20027;-86
2021/06/19 07:56:12;;;;;;;0.77;0.30;;;;;;;19.81;55.68;100508.88;4877694;29;20119;-85
2021/06/19 07:58:37;;;;;;;1.45;0.40;;;;;;;19.73;55.75;100508.88;4883231;29;20037;-85
2021/06/19 08:01:03;;;;;;;2.55;0.38;;;;;;;19.62;55.62;100504.63;4880013;29;20021;-85
2021/06/19 08:03:28;;;;;;;1.55;0.30;;;;;;;19.53;56.39;100501.09;4885632;29;20029;-85
2021/06/19 08:05:55;;;;;;;0.30;0.30;;;;;;;19.46;56.44;100508.06;4877736;29;20021;-85
2021/06/19 08:08:20;;;;;;;0.45;0.35;;;;;;;19.53;56.34;100495.78;4872589;29;20491;-85
2021/06/19 08:10:46;;;;;;;1.38;0.30;;;;;;;19.58;57.98;100504.09;4876981;29;20079;-85
2021/06/19 08:13:12;;;;;;;0.50;0.30;;;;;;;19.53;56.58;100501.09;4879105;29;20084;-85
2021/06/19 08:15:37;;;;;;;0.50;0.30;;;;;;;19.54;56.11;100518.72;4880404;29;20116;-85
2021/06/19 08:18:03;;;;;;;5.05;0.80;;;;;;;19.39;56.79;100510.53;4881167;29;20035;-85
2021/06/19 08:20:29;;;;;;;1.73;0.47;;;;;;;19.34;56.82;100506.66;4882781;29;20058;-86
2021/06/19 08:22:54;;;;;;;1.38;0.57;;;;;;;19.38;57.97;100508.84;4879048;29;20192;-88
2021/06/19 08:25:20;;;;;;;6.05;0.77;;;;;;;19.47;56.89;100516.88;4879253;29;20119;-89
2021/06/19 08:27:45;;;;;;;2.05;0.57;;;;;;;19.49;57.02;100515.72;4878923;29;20036;-90
2021/06/19 08:30:11;;;;;;;1.50;0.50;;;;;;;19.32;57.55;100509.47;4880047;29;20037;-90
2021/06/19 08:32:36;;;;;;;2.50;1.08;;;;;;;19.11;58.39;100522.34;4877983;29;20033;-89
2021/06/19 08:35:03;;;;;;;1.48;0.70;;;;;;;19.35;57.44;100518.97;4877657;29;20025;-90
2021/06/19 08:37:29;;;;;;;1.10;0.80;;;;;;;19.14;58.31;100509.56;4878843;29;20043;-89
2021/06/19 08:39:57;;;;;;;2.97;0.80;;;;;;;19.24;57.39;100512.09;4879074;29;20029;-88
2021/06/19 08:42:23;;;;;;;2.00;0.95;;;;;;;19.15;58.23;100502.41;4880815;29;20388;-88
2021/06/19 08:44:48;;;;;;;2.10;0.70;;;;;;;19.15;58.22;100492.56;4880508;29;20101;-88
2021/06/19 08:47:14;;;;;;;1.40;0.50;;;;;;;19.16;59.10;100496.09;4879529;29;20032;-88
2021/06/19 08:49:41;;;;;;;2.83;0.73;;;;;;;19.37;58.16;100501.88;4879094;29;20527;-88
2021/06/19 08:52:08;;;;;;;1.25;0.63;;;;;;;19.13;58.76;100499.06;4877617;29;20495;-88
2021/06/19 08:54:39;;;;;;;3.13;0.85;;;;;;;19.38;57.99;100505.34;4879744;29;20036;-88
2021/06/19 08:57:15;;;;;;;0.77;0.40;;;;;;;19.51;57.26;100503.09;4879841;29;20080;-88
2021/06/19 08:59:49;;;;;;;4.97;0.55;;;;;;;19.35;57.79;100506.50;4877094;29;20033;-89
2021/06/19 09:02:16;;;;;;;1.15;0.57;;;;;;;19.11;58.76;100504.53;4880237;29;20048;-88
2021/06/19 09:05:00;;;;;;;2.15;0.57;;;;;;;19.52;57.23;100502.06;4891746;29;20380;-88
2021/06/19 09:07:45;;;;;;;0.75;0.52;;;;;;;19.68;56.87;100503.16;4878720;29;20029;-88
2021/06/19 09:10:16;;;;;;;0.60;0.50;;;;;;;19.22;58.04;100498.13;4879748;29;20124;-88
2021/06/19 09:13:05;;;;;;;0.50;0.50;;;;;;;19.20;58.81;100492.13;4876121;29;20054;-88
2021/06/19 09:15:34;;;;;;;1.90;0.60;;;;;;;19.21;58.96;100491.97;4876019;29;20049;-89
2021/06/19 09:18:01;;;;;;;1.02;0.93;;;;;;;19.12;58.52;100506.22;4879833;29;20024;-89
2021/06/19 09:20:40;;;;;;;0.65;0.60;;;;;;;19.32;58.96;100498.84;4878325;29;20043;-90
2021/06/19 09:23:11;;;;;;;1.58;0.70;;;;;;;19.34;58.63;100506.66;4879558;29;20388;-88
2021/06/19 09:25:38;;;;;;;1.13;0.60;;;;;;;19.42;58.08;100490.72;4878907;29;20112;-88
2021/06/19 09:28:08;;;;;;;4.90;1.13;;;;;;;19.21;58.17;100475.13;4879597;29;20484;-88
2021/06/19 09:30:34;;;;;;;1.25;0.65;;;;;;;19.28;57.87;100467.38;4877772;29;20166;-88
2021/06/19 09:33:08;;;;;;;0.60;0.60;;;;;;;19.50;57.85;100487.25;4879646;29;20029;-89
2021/06/19 09:35:35;;;;;;;2.10;0.90;;;;;;;19.52;57.30;100490.59;4891850;29;20392;-88
2021/06/19 09:38:13;;;;;;;1.38;0.85;;;;;;;19.83;57.08;100482.06;4878694;29;20040;-88
2021/06/19 09:40:42;;;;;;;4.00;1.05;;;;;;;19.91;56.70;100498.09;4877971;29;20029;-88
2021/06/19 09:43:15;;;;;;;1.45;0.90;;;;;;;20.02;56.59;100492.44;4877720;29;20033;-88
2021/06/19 09:45:46;;;;;;;1.80;0.80;;;;;;;19.95;56.44;100480.78;4879512;29;20029;-89
2021/06/19 09:48:26;;;;;;;0.73;0.73;;;;;;;20.16;56.26;100481.16;4876977;29;20044;-88
2021/06/19 09:51:10;;;;;;;3.10;1.00;;;;;;;20.10;57.25;100481.81;4876915;29;20391;-88
2021/06/19 09:53:36;;;;;;;5.75;0.70;;;;;;;20.01;56.47;100477.47;4860498;29;20559;-89
2021/06/19 09:56:03;;;;;;;4.70;0.80;;;;;;;19.85;56.46;100483.59;4861030;29;20112;-88
2021/06/19 09:58:55;;;;;;;5.97;0.60;;;;;;;19.99;55.63;100488.28;4878987;29;20425;-88
2021/06/19 10:01:33;;;;;;;6.53;0.85;;;;;;;19.99;55.94;100479.44;4877499;29;20089;-88
2021/06/19 10:03:59;;;;;;;1.60;0.57;;;;;;;20.00;56.72;100475.78;4879233;29;20091;-88
2021/06/19 10:06:29;;;;;;;6.05;0.77;;;;;;;20.00;56.64;100489.09;4877404;29;20577;-88
2021/06/19 10:08:56;;;;;;;5.00;1.35;;;;;;;19.91;56.35;100484.78;4875666;29;20388;-89
2021/06/19 10:11:25;;;;;;;0.98;0.60;;;;;;;20.05;55.79;100480.63;4878984;29;20080;-88
2021/06/19 10:13:53;;;;;;;1.60;0.50;;;;;;;20.15;55.52;100460.81;4877478;29;20017;-88
2021/06/19 10:16:18;;;;;;;1.75;0.50;;;;;;;20.20;55.98;100460.31;4877530;29;20084;-88
2021/06/19 10:18:45;;;;;;;4.57;0.70;;;;;;;20.32;55.37;100466.13;4876389;29;20024;-88
2021/06/19 10:21:12;;;;;;;1.60;0.70;;;;;;;20.36;55.58;100454.16;4876091;29;20327;-88
2021/06/19 10:23:39;;;;;;;1.70;0.50;;;;;;;20.71;54.40;100468.97;4882570;29;20028;-88
2021/06/19 10:26:04;;;;;;;1.60;0.50;;;;;;;20.55;55.08;100468.97;4881408;29;20384;-88
2021/06/19 10:28:34;;;;;;;1.08;0.52;;;;;;;20.72;54.57;100483.19;4879568;29;20025;-88
2021/06/19 10:31:00;;;;;;;1.27;0.60;;;;;;;20.70;54.13;100477.19;4878495;29;20025;-89
2021/06/19 10:33:31;;;;;;;0.90;0.47;;;;;;;20.96;53.19;100477.78;4882657;29;20149;-89
2021/06/19 10:35:58;;;;;;;3.17;0.63;;;;;;;20.80;53.81;100470.66;4875408;29;20027;-88
2021/06/19 10:38:24;;;;;;;0.43;0.40;;;;;;;21.05;53.67;100475.09;4874944;29;20035;-89
2021/06/19 10:40:54;;;;;;;2.40;0.60;;;;;;;20.96;53.16;100477.78;4888181;29;20033;-88
2021/06/19 10:43:23;;;;;;;1.83;0.70;;;;;;;20.92;52.83;100478.31;4891290;29;20032;-88
2021/06/19 10:45:50;;;;;;;1.23;0.60;;;;;;;20.64;53.78;100476.00;4889062;29;20112;-88
2021/06/19 10:48:17;;;;;;;0.77;0.50;;;;;;;20.80;53.35;100483.16;4876559;29;20040;-88
2021/06/19 10:50:45;;;;;;;2.25;1.00;;;;;;;20.37;54.63;100482.50;4876457;29;20037;-91
2021/06/19 10:53:22;;;;;;;2.65;0.85;;;;;;;20.18;55.46;100496.97;4889679;29;20463;-88
2021/06/19 10:55:56;;;;;;;3.97;0.82;;;;;;;20.05;55.39;100497.44;4876479;29;20068;-88
2021/06/19 10:58:28;;;;;;;4.00;1.05;;;;;;;19.98;55.87;100494.63;4876210;29;20048;-87
2021/06/19 11:00:58;;;;;;;2.10;1.00;;;;;;;19.92;55.83;100487.25;4875066;29;20379;-86
2021/06/19 11:03:49;;;;;;;1.23;0.75;;;;;;;20.17;55.47;100481.97;4895903;29;20025;-89
2021/06/19 11:06:29;;;;;;;1.13;0.50;;;;;;;20.20;55.35;100485.16;4891185;29;20065;-87
2021/06/19 11:08:58;;;;;;;2.92;1.40;;;;;;;20.24;56.05;100475.00;4887418;29;20029;-87
2021/06/19 11:11:56;;;;;;;1.30;0.70;;;;;;;20.10;57.01;100479.16;4877733;29;20029;-88
2021/06/19 11:14:44;;;;;;;4.38;0.80;;;;;;;20.37;55.55;100472.66;4877757;29;20484;-87
2021/06/19 11:17:22;;;;;;;4.47;1.10;;;;;;;20.38;55.94;100462.84;4866125;29;20060;-88
2021/06/19 11:19:55;;;;;;;1.73;0.90;;;;;;;20.57;55.46;100457.13;4877725;29;20032;-88
2021/06/19 11:22:33;;;;;;;3.42;1.00;;;;;;;20.86;55.08;100460.31;4877429;29;20048;-88
2021/06/19 11:26:12;;;;;;;3.75;0.75;;;;;;;20.76;55.13;100466.66;4877464;29;20107;-92
2021/06/19 11:28:18;;;;;;;1.95;0.80;;;;;;;20.69;54.74;100456.81;4880880;29;20041;-88